ADDS TAF Board (Experimental) INFO Settings

IDs: Format: Expanded Condensed

KATL - Atlanta/Hartsfield-J, GA, US

Issued at 0734 UTC 01 Apr 2015
Updated at: 0935 UTC 01 Apr 2015
Time0852Z 01/10Z 01/11Z 01/12Z 01/13Z 01/14Z 01/15Z 01/16Z 01/17Z 01/18Z 01/19Z 01/20Z 01/21Z 01/22Z
Type OBS PRVL PRVL PRVL PRVL PRVL PRVL PRVL PRVL PRVL PRVL PRVL PRVL PRVL
VIS 10 >6 >6 >6 >6 >6 >6 >6 >6 >6 >6 >6 >6 >6
CIG 90 60 60 50 50 -- -- -- -- -- -- -- -- --
Cover OVC BKN BKN BKN BKN SCT SCT SCT SCT SCT SCT SCT SCT SCT
FltCat VFR VFR VFR VFR VFR VFR VFR VFR VFR VFR VFR VFR VFR VFR
WX -- VCSH VCSH -- -- -- -- -- -- -- -- -- -- --
WDir 300 290 290 290 290 310 310 340 340 340 340 340 340 340
WSpd 7 5 5 3 3 5 5 7 7 7 7 7 7 7
WGst -- -- -- -- -- -- -- -- -- -- -- -- -- --
R08/26
XWnd 4 2 2 1 1 3 3 7 7 7 7 7 7 7
HWnd -6 -5 -5 -3 -3 -4 -4 -2 -2 -2 -2 -2 -2 -2
R09/27
XWnd 4 2 2 1 1 3 3 7 7 7 7 7 7 7
HWnd -6 -5 -5 -3 -3 -4 -4 -2 -2 -2 -2 -2 -2 -2
R10/28
XWnd 4 2 2 1 1 3 3 7 7 7 7 7 7 7
HWnd -6 -5 -5 -3 -3 -4 -4 -2 -2 -2 -2 -2 -2 -2

NOTE: TEMPO conditions in [brackets]. Keep in mind TEMPO conditions might be better (lower impact) than prevailing conditions.

Raw TAF
KATL 010734Z 0108/0212 27008KT 5SM -SHRA FEW025 BKN060
  TEMPO 0108/0110 3SM -TSRA BKN025CB
  FM011000 29005KT P6SM VCSH SCT015 BKN060
  FM011200 29003KT P6SM SCT015 BKN050
  FM011400 31005KT P6SM SCT045
  FM011600 34007KT P6SM SCT045
  FM012300 04006KT P6SM FEW050
  FM020700 12007KT P6SM BKN010


Raw METAR
KATL 010852Z 30007KT 10SM OVC090 14/12 A2998 RMK AO2 RAE25 SLP146 P0001 60045 T01390122 58001
KATL 010752Z 24007KT 8SM -RA FEW065 OVC090 14/12 A2997 RMK AO2 SLP145 P0023 T01390122
KATL 010652Z 30011KT 5SM RA BR SCT060 OVC080 14/12 A3001 RMK AO2 TSE52 SLP155 OCNL LTGICCG DSNT SE-SW TS MOV SE P0021 T01440122

METAR Board
Radar Display
Forecast Discussion

TAF Board Legend

Potential Impact
Threat None Slight Moderate High
Visibility (sm) ≥5.1 5.1>X≥3 3>X≥1 <1
Ceiling (100 ft) ≥30.1 30.1>X≥10 10>X≥5 <5
Wind Speed (kt) <10 10≤X<20 20≤X<30 ≥30
Wind Gust (kt) <15 15≤X<25 25≤X<35 ≥35
Weather No Wx Reported VCTS,-TS,-FZRA,SN TS,FZRA +TS,+FZRA,+SN